sensor_id;sensor_type;location;lat;lon;timestamp;P1;durP1;ratioP1;P2;durP2;ratioP2
38190;SDS011;25191;47.510;19.124;2022-09-09T00:17:04;1.50;;;1.40;;
38190;SDS011;25191;47.510;19.124;2022-09-09T00:27:55;1.57;;;1.40;;
38190;SDS011;25191;47.510;19.124;2022-09-09T00:37:37;1.52;;;1.35;;
38190;SDS011;25191;47.510;19.124;2022-09-09T00:57:43;1.83;;;1.52;;
38190;SDS011;25191;47.510;19.124;2022-09-09T01:07:47;1.70;;;1.60;;
38190;SDS011;25191;47.510;19.124;2022-09-09T01:27:57;1.65;;;1.20;;
38190;SDS011;25191;47.510;19.124;2022-09-09T01:38:02;1.30;;;1.20;;
38190;SDS011;25191;47.510;19.124;2022-09-09T01:48:02;1.30;;;1.20;;
38190;SDS011;25191;47.510;19.124;2022-09-09T02:08:27;1.05;;;0.95;;
38190;SDS011;25191;47.510;19.124;2022-09-09T02:18:35;1.85;;;1.20;;
38190;SDS011;25191;47.510;19.124;2022-09-09T02:28:47;1.20;;;1.10;;
38190;SDS011;25191;47.510;19.124;2022-09-09T02:38:49;1.40;;;1.08;;
38190;SDS011;25191;47.510;19.124;2022-09-09T02:49:15;1.20;;;1.10;;
38190;SDS011;25191;47.510;19.124;2022-09-09T02:59:22;1.20;;;1.10;;
38190;SDS011;25191;47.510;19.124;2022-09-09T03:09:26;0.93;;;0.90;;
38190;SDS011;25191;47.510;19.124;2022-09-09T03:19:26;1.20;;;1.10;;
38190;SDS011;25191;47.510;19.124;2022-09-09T03:29:27;1.10;;;1.00;;
38190;SDS011;25191;47.510;19.124;2022-09-09T03:39:28;1.20;;;1.10;;
38190;SDS011;25191;47.510;19.124;2022-09-09T03:49:29;0.90;;;0.90;;
38190;SDS011;25191;47.510;19.124;2022-09-09T03:59:29;0.80;;;0.80;;
38190;SDS011;25191;47.510;19.124;2022-09-09T04:09:30;0.80;;;0.80;;
38190;SDS011;25191;47.510;19.124;2022-09-09T04:19:30;0.80;;;0.80;;
38190;SDS011;25191;47.510;19.124;2022-09-09T04:29:31;0.90;;;0.90;;
38190;SDS011;25191;47.510;19.124;2022-09-09T04:39:31;2.05;;;1.00;;
38190;SDS011;25191;47.510;19.124;2022-09-09T04:49:32;1.63;;;1.30;;
38190;SDS011;25191;47.510;19.124;2022-09-09T04:59:33;1.30;;;1.20;;
38190;SDS011;25191;47.510;19.124;2022-09-09T05:09:33;1.58;;;1.45;;
38190;SDS011;25191;47.510;19.124;2022-09-09T05:19:34;4.13;;;2.00;;
38190;SDS011;25191;47.510;19.124;2022-09-09T05:29:34;3.85;;;1.70;;
38190;SDS011;25191;47.510;19.124;2022-09-09T05:39:35;1.50;;;1.40;;
38190;SDS011;25191;47.510;19.124;2022-09-09T05:49:36;3.25;;;1.48;;
38190;SDS011;25191;47.510;19.124;2022-09-09T05:59:37;3.60;;;1.30;;
38190;SDS011;25191;47.510;19.124;2022-09-09T06:09:38;4.40;;;1.50;;
38190;SDS011;25191;47.510;19.124;2022-09-09T06:19:38;2.50;;;1.70;;
38190;SDS011;25191;47.510;19.124;2022-09-09T06:29:40;1.50;;;1.23;;
38190;SDS011;25191;47.510;19.124;2022-09-09T06:39:40;10.07;;;1.70;;
38190;SDS011;25191;47.510;19.124;2022-09-09T06:49:40;4.03;;;2.38;;
38190;SDS011;25191;47.510;19.124;2022-09-09T06:59:43;6.82;;;1.80;;
38190;SDS011;25191;47.510;19.124;2022-09-09T07:09:43;2.72;;;1.50;;
38190;SDS011;25191;47.510;19.124;2022-09-09T07:19:45;3.78;;;1.20;;
38190;SDS011;25191;47.510;19.124;2022-09-09T07:29:45;2.72;;;1.27;;
38190;SDS011;25191;47.510;19.124;2022-09-09T07:39:46;2.55;;;1.40;;
38190;SDS011;25191;47.510;19.124;2022-09-09T07:49:46;3.38;;;1.50;;
38190;SDS011;25191;47.510;19.124;2022-09-09T07:59:49;3.53;;;1.58;;
38190;SDS011;25191;47.510;19.124;2022-09-09T08:09:50;3.60;;;1.30;;
38190;SDS011;25191;47.510;19.124;2022-09-09T08:19:52;1.20;;;1.05;;
38190;SDS011;25191;47.510;19.124;2022-09-09T08:29:54;5.55;;;1.00;;
38190;SDS011;25191;47.510;19.124;2022-09-09T08:39:55;1.58;;;0.85;;
38190;SDS011;25191;47.510;19.124;2022-09-09T09:00:15;1.45;;;1.00;;
38190;SDS011;25191;47.510;19.124;2022-09-09T09:10:20;1.42;;;1.00;;
38190;SDS011;25191;47.510;19.124;2022-09-09T09:31:05;0.75;;;0.75;;
38190;SDS011;25191;47.510;19.124;2022-09-09T09:41:08;1.25;;;1.00;;
38190;SDS011;25191;47.510;19.124;2022-09-09T09:51:09;0.80;;;0.80;;
38190;SDS011;25191;47.510;19.124;2022-09-09T10:01:33;0.82;;;0.75;;
38190;SDS011;25191;47.510;19.124;2022-09-09T10:32:40;2.55;;;0.90;;
38190;SDS011;25191;47.510;19.124;2022-09-09T10:53:35;1.90;;;1.02;;
38190;SDS011;25191;47.510;19.124;2022-09-09T11:03:39;6.57;;;1.33;;
38190;SDS011;25191;47.510;19.124;2022-09-09T11:13:45;2.83;;;1.30;;
38190;SDS011;25191;47.510;19.124;2022-09-09T11:23:55;0.82;;;0.82;;
38190;SDS011;25191;47.510;19.124;2022-09-09T11:44:35;2.92;;;1.15;;
38190;SDS011;25191;47.510;19.124;2022-09-09T11:54:44;2.40;;;1.10;;
38190;SDS011;25191;47.510;19.124;2022-09-09T12:04:58;2.28;;;0.77;;
38190;SDS011;25191;47.510;19.124;2022-09-09T12:45:23;3.53;;;1.25;;
38190;SDS011;25191;47.510;19.124;2022-09-09T12:55:30;2.58;;;1.10;;
38190;SDS011;25191;47.510;19.124;2022-09-09T13:05:37;4.80;;;1.35;;
38190;SDS011;25191;47.510;19.124;2022-09-09T13:15:38;2.58;;;1.10;;
38190;SDS011;25191;47.510;19.124;2022-09-09T13:25:39;5.00;;;1.27;;
38190;SDS011;25191;47.510;19.124;2022-09-09T13:45:55;1.58;;;1.00;;
38190;SDS011;25191;47.510;19.124;2022-09-09T13:55:58;1.85;;;1.20;;
38190;SDS011;25191;47.510;19.124;2022-09-09T14:05:59;2.22;;;1.08;;
38190;SDS011;25191;47.510;19.124;2022-09-09T14:16:01;1.35;;;1.00;;
38190;SDS011;25191;47.510;19.124;2022-09-09T14:26:01;2.40;;;1.10;;
38190;SDS011;25191;47.510;19.124;2022-09-09T14:36:02;17.35;;;1.25;;
38190;SDS011;25191;47.510;19.124;2022-09-09T14:46:04;5.32;;;1.20;;
38190;SDS011;25191;47.510;19.124;2022-09-09T14:56:10;5.57;;;1.10;;
38190;SDS011;25191;47.510;19.124;2022-09-09T15:06:13;2.63;;;0.82;;
38190;SDS011;25191;47.510;19.124;2022-09-09T15:16:16;2.13;;;0.90;;
38190;SDS011;25191;47.510;19.124;2022-09-09T15:26:18;1.30;;;0.90;;
38190;SDS011;25191;47.510;19.124;2022-09-09T15:36:20;1.27;;;0.90;;
38190;SDS011;25191;47.510;19.124;2022-09-09T15:46:29;1.55;;;0.82;;
38190;SDS011;25191;47.510;19.124;2022-09-09T15:56:40;1.13;;;0.80;;
38190;SDS011;25191;47.510;19.124;2022-09-09T16:06:41;1.95;;;0.80;;
38190;SDS011;25191;47.510;19.124;2022-09-09T16:16:42;0.70;;;0.70;;
38190;SDS011;25191;47.510;19.124;2022-09-09T16:26:43;0.77;;;0.60;;
38190;SDS011;25191;47.510;19.124;2022-09-09T16:36:45;0.80;;;0.77;;
38190;SDS011;25191;47.510;19.124;2022-09-09T16:46:48;4.00;;;0.70;;
38190;SDS011;25191;47.510;19.124;2022-09-09T16:56:51;2.08;;;0.88;;
38190;SDS011;25191;47.510;19.124;2022-09-09T17:06:52;3.80;;;1.03;;
38190;SDS011;25191;47.510;19.124;2022-09-09T17:16:54;2.45;;;0.80;;
38190;SDS011;25191;47.510;19.124;2022-09-09T17:26:54;2.97;;;1.00;;
38190;SDS011;25191;47.510;19.124;2022-09-09T17:36:55;3.90;;;0.90;;
38190;SDS011;25191;47.510;19.124;2022-09-09T17:46:55;3.90;;;1.20;;
38190;SDS011;25191;47.510;19.124;2022-09-09T17:56:57;1.50;;;1.02;;
38190;SDS011;25191;47.510;19.124;2022-09-09T18:06:58;5.82;;;1.55;;
38190;SDS011;25191;47.510;19.124;2022-09-09T18:16:59;6.82;;;1.98;;
38190;SDS011;25191;47.510;19.124;2022-09-09T18:27:01;6.72;;;1.73;;
38190;SDS011;25191;47.510;19.124;2022-09-09T18:37:01;6.22;;;1.73;;
38190;SDS011;25191;47.510;19.124;2022-09-09T18:47:03;5.57;;;2.10;;
38190;SDS011;25191;47.510;19.124;2022-09-09T18:57:04;5.70;;;2.17;;
38190;SDS011;25191;47.510;19.124;2022-09-09T19:07:05;7.03;;;1.95;;
38190;SDS011;25191;47.510;19.124;2022-09-09T19:17:05;5.85;;;2.28;;
38190;SDS011;25191;47.510;19.124;2022-09-09T19:37:06;3.90;;;2.75;;
38190;SDS011;25191;47.510;19.124;2022-09-09T19:47:07;4.63;;;3.55;;
38190;SDS011;25191;47.510;19.124;2022-09-09T19:57:07;6.07;;;3.35;;
38190;SDS011;25191;47.510;19.124;2022-09-09T20:07:09;5.88;;;3.30;;
38190;SDS011;25191;47.510;19.124;2022-09-09T20:17:09;3.53;;;3.15;;
38190;SDS011;25191;47.510;19.124;2022-09-09T20:27:09;3.72;;;3.42;;
38190;SDS011;25191;47.510;19.124;2022-09-09T20:37:10;6.40;;;3.70;;
38190;SDS011;25191;47.510;19.124;2022-09-09T20:47:11;4.77;;;3.73;;
38190;SDS011;25191;47.510;19.124;2022-09-09T20:57:11;5.23;;;3.80;;
38190;SDS011;25191;47.510;19.124;2022-09-09T21:07:15;4.90;;;3.90;;
38190;SDS011;25191;47.510;19.124;2022-09-09T21:17:16;5.80;;;4.55;;
38190;SDS011;25191;47.510;19.124;2022-09-09T21:27:18;6.05;;;4.25;;
38190;SDS011;25191;47.510;19.124;2022-09-09T21:37:20;5.22;;;4.50;;
38190;SDS011;25191;47.510;19.124;2022-09-09T21:57:22;13.93;;;4.90;;
38190;SDS011;25191;47.510;19.124;2022-09-09T22:07:22;8.33;;;4.97;;
38190;SDS011;25191;47.510;19.124;2022-09-09T22:17:23;6.15;;;5.55;;
38190;SDS011;25191;47.510;19.124;2022-09-09T22:27:23;6.38;;;4.68;;
38190;SDS011;25191;47.510;19.124;2022-09-09T22:37:24;8.60;;;7.70;;
38190;SDS011;25191;47.510;19.124;2022-09-09T22:47:25;6.67;;;5.60;;
38190;SDS011;25191;47.510;19.124;2022-09-09T22:57:25;6.43;;;5.03;;
38190;SDS011;25191;47.510;19.124;2022-09-09T23:07:27;6.88;;;6.07;;
38190;SDS011;25191;47.510;19.124;2022-09-09T23:17:27;6.88;;;5.13;;
38190;SDS011;25191;47.510;19.124;2022-09-09T23:27:29;5.40;;;4.90;;
38190;SDS011;25191;47.510;19.124;2022-09-09T23:47:30;8.40;;;5.30;;
38190;SDS011;25191;47.510;19.124;2022-09-09T23:57:31;10.65;;;6.38;;
